Airfield :
LOGIN :

Register | Disclaimer

   EN    FR    IT 

 










Legend :    VFR   Marginal VFR   IFR   Intensive IFR   Very Intensive IFR
Visi :
Ceiling :
>= 8 km
>= 3000ft
5 to 8 km
1000 to 3000 ft
1500m to 5 km
500 to 1000 ft
800 to 1500m
200 to 500 ft
< 800m
< 200 ft
Symbols :   Thunderstorms  Fog  Heavy snow  Heavy precipitations  Wind > 20 kt
SIGMETs :     Misc.  Thunderstorms  Icing  Turbulence  Mountain Waves  Volcanic Ashes







- Airport Elevation : 863 ft
- IATA code : ZAZ


LEZG - Zaragoza Aragon

CURRENT METAR :
  • 221030Z 29007KT 250V350 CAVOK 24/14 Q1024

EXPIRED METARs :
  • 221000Z 27008KT 230V300 CAVOK 23/15 Q1024
  • 220930Z 28008KT 240V320 CAVOK 23/15 Q1024
  • 220900Z 29010KT 250V330 CAVOK 22/15 Q1024
  • 220830Z 29010KT 260V330 CAVOK 22/14 Q1024
  • 220800Z 29009KT 260V330 CAVOK 21/14 Q1024

TAF TAF LEZG
Valid from the 22 at 06:00 until the 23 at 06:00 UTC


220500Z 2206/2306 30009KT 9999 FEW050 TX34/2213Z TN18/2206Z
No reported NOTAMs for that airfield.



MET'MAP, your aeronautical weather chart ! - Copyright ORBIFLY December 2007 - Disclaimer

ORBIFLY MET'MAP TEAM :

Programming & Development : Alexandra Zaïnal
Concept & Development : Baudouin d'Aumeries
Co-Development & Prog : Marc-Olivier Méhu
Technical & hardware support : Manuel Goepfert

Contact : metmap@orbifly.com




SOURCES & CREDITS :

   NOAA